Time;durP1;ratioP1;P1;durP2;ratioP2;P2;SDS_P1;SDS_P2;PMS_P1;PMS_P2;Temp;Humidity;BMP_temperature;BMP_pressure;BME280_temperature;BME280_humidity;BME280_pressure;Samples;Min_cycle;Max_cycle;Signal;HPM_P1;HPM_P2
2022/01/11 00:01:29;;;;;;;11.40;6.70;;;;;;;;;;5094644;28;20020;-84
2022/01/11 00:03:56;;;;;;;14.68;6.05;;;;;;;;;;5093992;28;20020;-66
2022/01/11 00:06:41;;;;;;;10.88;5.85;;;;;;;;;;5093924;28;20013;-61
2022/01/11 00:09:19;;;;;;;10.13;5.78;;;;;;;;;;5093922;28;20024;-64
2022/01/11 00:11:45;;;;;;;11.25;6.38;;;;;;;;;;5093895;28;20016;-71
2022/01/11 00:14:11;;;;;;;9.52;5.80;;;;;;;;;;5093855;28;20017;-70
2022/01/11 00:16:37;;;;;;;9.82;5.88;;;;;;;;;;5093698;28;20050;-70
2022/01/11 00:19:06;;;;;;;11.55;6.43;;;;;;;;;;5093789;28;20031;-70
2022/01/11 00:21:33;;;;;;;12.85;6.80;;;;;;;;;;5093848;28;20023;-67
2022/01/11 00:26:44;;;;;;;10.43;6.10;;;;;;;;;;5073352;28;20047;-66
2022/01/11 00:29:10;;;;;;;11.18;6.35;;;;;;;;;;5072246;28;20023;-69
2022/01/11 00:31:37;;;;;;;12.43;6.97;;;;;;;;;;5073407;28;20028;-67
2022/01/11 00:34:06;;;;;;;12.13;6.40;;;;;;;;;;5073431;28;20435;-67
2022/01/11 00:36:41;;;;;;;10.07;6.15;;;;;;;;;;5073193;28;20055;-70
2022/01/11 00:39:08;;;;;;;10.80;6.47;;;;;;;;;;5073296;28;20079;-67
2022/01/11 00:41:34;;;;;;;10.60;6.32;;;;;;;;;;5071953;28;20021;-67
2022/01/11 00:44:00;;;;;;;12.15;7.32;;;;;;;;;;5073238;28;20630;-69
2022/01/11 00:46:26;;;;;;;8.35;5.53;;;;;;;;;;5071741;28;20017;-70
2022/01/11 00:48:52;;;;;;;10.20;6.20;;;;;;;;;;5072666;28;20107;-70
2022/01/11 00:51:18;;;;;;;10.23;6.25;;;;;;;;;;5072887;28;20466;-68
2022/01/11 00:53:44;;;;;;;10.68;6.63;;;;;;;;;;5072870;28;20124;-72
2022/01/11 00:56:10;;;;;;;12.30;7.00;;;;;;;;;;5080944;28;20031;-71
2022/01/11 00:58:36;;;;;;;10.60;6.53;;;;;;;;;;5093196;28;20043;-64
2022/01/11 01:01:02;;;;;;;12.55;7.15;;;;;;;;;;5091674;28;20024;-67
2022/01/11 01:03:29;;;;;;;11.13;6.55;;;;;;;;;;5092799;28;20024;-71
2022/01/11 01:05:55;;;;;;;12.63;7.55;;;;;;;;;;5092998;28;20027;-65
2022/01/11 01:08:21;;;;;;;9.63;5.95;;;;;;;;;;5092996;28;20480;-70
2022/01/11 01:10:47;;;;;;;10.85;6.25;;;;;;;;;;5091448;28;20020;-69
2022/01/11 01:13:17;;;;;;;10.05;6.45;;;;;;;;;;5092764;28;20071;-64
2022/01/11 01:15:46;;;;;;;9.68;6.05;;;;;;;;;;5092778;28;20020;-71
2022/01/11 01:18:14;;;;;;;10.43;6.53;;;;;;;;;;5092569;28;20039;-69
2022/01/11 01:20:40;;;;;;;11.15;6.78;;;;;;;;;;5092703;28;20012;-66
2022/01/11 01:23:06;;;;;;;10.48;6.70;;;;;;;;;;5092527;28;20038;-66
2022/01/11 01:25:33;;;;;;;11.68;6.60;;;;;;;;;;5091146;28;20516;-68
2022/01/11 01:27:59;;;;;;;11.23;5.50;;;;;;;;;;5092564;28;20031;-68
2022/01/11 01:30:25;;;;;;;10.20;6.18;;;;;;;;;;5092416;28;20020;-70
2022/01/11 01:32:52;;;;;;;11.68;7.10;;;;;;;;;;5092208;28;20023;-65
2022/01/11 01:35:20;;;;;;;10.20;5.78;;;;;;;;;;5092547;28;20016;-68
2022/01/11 01:37:47;;;;;;;9.65;6.07;;;;;;;;;;5092230;28;20114;-67
2022/01/11 01:40:13;;;;;;;50.20;7.72;;;;;;;;;;5082023;28;20408;-67
2022/01/11 01:42:40;;;;;;;18.27;5.75;;;;;;;;;;5079046;28;20028;-68
2022/01/11 01:45:07;;;;;;;10.40;6.18;;;;;;;;;;5069871;28;20521;-68
2022/01/11 01:47:33;;;;;;;9.48;5.70;;;;;;;;;;5088295;28;20113;-66
2022/01/11 01:49:59;;;;;;;11.15;6.07;;;;;;;;;;5091292;28;20054;-67
2022/01/11 01:52:26;;;;;;;10.38;5.75;;;;;;;;;;5091736;28;20048;-69
2022/01/11 01:54:52;;;;;;;10.15;5.97;;;;;;;;;;5091085;28;20027;-68
2022/01/11 01:57:19;;;;;;;13.70;6.45;;;;;;;;;;5090379;28;20040;-68
2022/01/11 01:59:45;;;;;;;9.48;5.45;;;;;;;;;;5072396;28;20024;-72
2022/01/11 02:02:13;;;;;;;10.68;6.00;;;;;;;;;;5071303;28;20017;-63
2022/01/11 02:04:39;;;;;;;9.18;5.65;;;;;;;;;;5069869;28;20048;-69
2022/01/11 02:07:05;;;;;;;10.48;5.97;;;;;;;;;;5070329;28;20054;-65
2022/01/11 02:09:31;;;;;;;8.80;5.55;;;;;;;;;;5069243;28;20073;-66
2022/01/11 02:11:58;;;;;;;10.13;5.53;;;;;;;;;;5071693;28;20035;-67
2022/01/11 02:14:24;;;;;;;9.68;5.35;;;;;;;;;;5070932;28;20103;-65
2022/01/11 02:16:50;;;;;;;9.13;5.32;;;;;;;;;;5070708;28;20027;-66
2022/01/11 02:19:16;;;;;;;9.68;5.38;;;;;;;;;;5070813;28;20077;-64
2022/01/11 02:21:42;;;;;;;12.48;5.60;;;;;;;;;;5070487;28;20110;-69
2022/01/11 02:24:08;;;;;;;12.15;6.10;;;;;;;;;;5070722;28;20588;-68
2022/01/11 02:26:34;;;;;;;9.80;5.78;;;;;;;;;;5070826;28;20031;-67
2022/01/11 02:29:00;;;;;;;24.33;5.28;;;;;;;;;;5071381;28;20534;-64
2022/01/11 02:31:26;;;;;;;11.00;5.85;;;;;;;;;;5069386;28;20028;-67
2022/01/11 02:33:56;;;;;;;9.68;6.15;;;;;;;;;;5070714;28;20481;-64
2022/01/11 02:36:24;;;;;;;8.40;5.20;;;;;;;;;;5070597;28;20056;-69
2022/01/11 02:38:52;;;;;;;9.00;5.55;;;;;;;;;;5070698;28;20060;-70
2022/01/11 02:41:19;;;;;;;9.63;5.30;;;;;;;;;;5070673;28;20523;-68
2022/01/11 02:43:48;;;;;;;9.25;5.20;;;;;;;;;;5070528;28;20032;-71
2022/01/11 02:46:21;;;;;;;9.65;5.50;;;;;;;;;;5070919;28;20043;-70
2022/01/11 02:48:48;;;;;;;12.57;5.45;;;;;;;;;;5069321;28;20035;-71
2022/01/11 02:51:17;;;;;;;8.05;5.00;;;;;;;;;;5069438;28;20031;-69
2022/01/11 02:53:44;;;;;;;8.65;5.15;;;;;;;;;;5074431;28;20101;-73
2022/01/11 02:56:10;;;;;;;9.60;5.55;;;;;;;;;;5074415;28;20028;-70
2022/01/11 02:58:36;;;;;;;9.95;5.53;;;;;;;;;;5074777;28;20485;-65
2022/01/11 03:01:03;;;;;;;8.30;5.00;;;;;;;;;;5074953;28;20103;-72
2022/01/11 03:03:29;;;;;;;10.02;5.18;;;;;;;;;;5073955;28;20392;-68
2022/01/11 03:05:57;;;;;;;10.25;5.43;;;;;;;;;;5074948;28;20366;-66
2022/01/11 03:08:23;;;;;;;9.77;5.15;;;;;;;;;;5074684;28;20487;-65
2022/01/11 03:10:50;;;;;;;8.48;5.32;;;;;;;;;;5074456;28;20115;-65
2022/01/11 03:13:16;;;;;;;9.15;4.97;;;;;;;;;;5074359;28;20032;-66
2022/01/11 03:15:43;;;;;;;7.20;4.75;;;;;;;;;;5074366;28;20023;-66
2022/01/11 03:18:09;;;;;;;9.13;5.53;;;;;;;;;;5074627;28;20040;-70
2022/01/11 03:20:36;;;;;;;8.15;4.75;;;;;;;;;;5073847;28;20028;-69
2022/01/11 03:23:02;;;;;;;9.40;5.55;;;;;;;;;;5074174;28;20057;-70
2022/01/11 03:25:28;;;;;;;9.63;5.35;;;;;;;;;;5073882;28;20041;-68
2022/01/11 03:27:54;;;;;;;9.32;5.18;;;;;;;;;;5073927;28;20039;-69
2022/01/11 03:30:20;;;;;;;9.50;5.43;;;;;;;;;;5074064;28;20174;-69
2022/01/11 03:32:46;;;;;;;9.35;5.53;;;;;;;;;;5074095;28;20017;-67
2022/01/11 03:35:13;;;;;;;7.70;4.80;;;;;;;;;;5073928;28;20031;-65
2022/01/11 03:37:41;;;;;;;8.98;5.60;;;;;;;;;;5074199;28;20040;-65
2022/01/11 03:40:09;;;;;;;8.52;5.10;;;;;;;;;;5073715;28;20020;-68
2022/01/11 03:42:35;;;;;;;9.40;5.28;;;;;;;;;;5073716;28;20089;-65
2022/01/11 03:45:01;;;;;;;10.93;5.50;;;;;;;;;;5073450;28;20045;-68
2022/01/11 03:47:27;;;;;;;10.05;5.38;;;;;;;;;;5072087;28;20074;-69
2022/01/11 03:49:53;;;;;;;9.15;4.97;;;;;;;;;;5073388;28;20017;-68
2022/01/11 03:52:20;;;;;;;9.07;5.03;;;;;;;;;;5072085;28;20025;-69
2022/01/11 03:57:25;;;;;;;8.93;5.40;;;;;;;;;;5073667;28;20025;-69
2022/01/11 03:59:51;;;;;;;9.30;5.55;;;;;;;;;;5073387;28;20031;-64
2022/01/11 04:02:17;;;;;;;8.57;5.10;;;;;;;;;;5073263;28;20498;-66
2022/01/11 04:04:44;;;;;;;8.75;5.47;;;;;;;;;;5073444;28;20024;-66
2022/01/11 04:07:10;;;;;;;9.52;5.07;;;;;;;;;;5072073;28;20046;-67
2022/01/11 04:09:36;;;;;;;9.15;4.93;;;;;;;;;;5073868;28;20052;-73
2022/01/11 04:12:02;;;;;;;8.80;5.22;;;;;;;;;;5071852;28;20393;-70
2022/01/11 04:14:28;;;;;;;7.88;4.88;;;;;;;;;;5073312;28;20116;-68
2022/01/11 04:16:54;;;;;;;7.90;5.10;;;;;;;;;;5073032;28;20044;-68
2022/01/11 04:19:21;;;;;;;8.05;4.80;;;;;;;;;;5073166;28;20062;-67
2022/01/11 04:21:48;;;;;;;7.75;4.93;;;;;;;;;;5072997;28;20103;-71
2022/01/11 04:24:14;;;;;;;7.32;4.82;;;;;;;;;;5072704;28;20545;-66
2022/01/11 04:26:41;;;;;;;9.82;4.88;;;;;;;;;;5073787;28;20039;-70
2022/01/11 04:29:07;;;;;;;7.50;4.65;;;;;;;;;;5072922;28;20029;-68
2022/01/11 04:31:33;;;;;;;10.70;5.22;;;;;;;;;;5072901;28;20063;-64
2022/01/11 04:33:59;;;;;;;8.52;4.82;;;;;;;;;;5072897;28;20030;-66
2022/01/11 04:36:25;;;;;;;9.00;5.10;;;;;;;;;;5072846;28;20477;-66
2022/01/11 04:38:51;;;;;;;9.70;5.63;;;;;;;;;;5072816;28;20035;-65
2022/01/11 04:41:17;;;;;;;9.02;5.13;;;;;;;;;;5071416;28;20027;-69
2022/01/11 04:43:43;;;;;;;6.95;4.53;;;;;;;;;;5073085;28;20028;-68
2022/01/11 04:46:09;;;;;;;8.32;4.93;;;;;;;;;;5072770;28;20369;-69
2022/01/11 04:48:36;;;;;;;8.75;5.28;;;;;;;;;;5071254;28;20051;-67
2022/01/11 04:51:03;;;;;;;8.23;5.20;;;;;;;;;;5072506;28;20032;-73
2022/01/11 04:53:29;;;;;;;7.40;4.63;;;;;;;;;;5071162;28;20021;-63
2022/01/11 04:55:56;;;;;;;9.98;4.78;;;;;;;;;;5072417;28;20029;-69
2022/01/11 04:58:22;;;;;;;11.13;5.28;;;;;;;;;;5070886;28;20065;-67
2022/01/11 05:00:48;;;;;;;9.15;4.95;;;;;;;;;;5072835;28;20029;-69
2022/01/11 05:03:18;;;;;;;10.43;5.50;;;;;;;;;;5072325;28;20071;-68
2022/01/11 05:05:44;;;;;;;10.50;6.00;;;;;;;;;;5072418;28;20021;-65
2022/01/11 05:08:10;;;;;;;9.65;5.30;;;;;;;;;;5072211;28;20031;-70
2022/01/11 05:10:42;;;;;;;7.82;4.57;;;;;;;;;;5070590;28;20056;-70
2022/01/11 05:13:08;;;;;;;8.18;5.22;;;;;;;;;;5071992;28;20433;-69
2022/01/11 05:15:34;;;;;;;9.80;5.07;;;;;;;;;;5069908;28;20009;-70
2022/01/11 05:18:00;;;;;;;8.23;5.07;;;;;;;;;;5072449;28;20120;-70
2022/01/11 05:20:26;;;;;;;9.15;5.00;;;;;;;;;;5070792;28;20025;-68
2022/01/11 05:22:52;;;;;;;8.85;5.00;;;;;;;;;;5071843;28;20021;-68
2022/01/11 05:25:20;;;;;;;10.35;5.55;;;;;;;;;;5071802;28;20162;-70
2022/01/11 05:27:46;;;;;;;8.23;4.85;;;;;;;;;;5071760;28;20406;-67
2022/01/11 05:30:13;;;;;;;9.57;5.57;;;;;;;;;;5071506;28;20392;-70
2022/01/11 05:32:39;;;;;;;11.45;5.35;;;;;;;;;;5071586;28;20039;-69
2022/01/11 05:35:07;;;;;;;8.52;5.35;;;;;;;;;;5079720;28;20020;-70
2022/01/11 05:37:33;;;;;;;11.88;5.80;;;;;;;;;;5091495;28;20043;-66
2022/01/11 05:39:59;;;;;;;25.15;6.00;;;;;;;;;;5091506;28;20066;-67
2022/01/11 05:42:26;;;;;;;9.52;5.70;;;;;;;;;;5091661;28;20504;-69
2022/01/11 05:44:53;;;;;;;8.93;5.20;;;;;;;;;;5091691;28;20085;-66
2022/01/11 05:47:19;;;;;;;9.25;5.53;;;;;;;;;;5091903;28;20165;-68
2022/01/11 05:49:45;;;;;;;9.85;5.85;;;;;;;;;;5092137;28;20408;-73
2022/01/11 05:52:11;;;;;;;8.48;5.53;;;;;;;;;;5090987;28;20036;-71
2022/01/11 05:54:37;;;;;;;8.48;4.85;;;;;;;;;;5090577;28;20024;-71
2022/01/11 05:57:04;;;;;;;10.02;5.20;;;;;;;;;;5091692;28;20021;-69
2022/01/11 05:59:30;;;;;;;8.27;5.20;;;;;;;;;;5091494;28;20400;-71
2022/01/11 06:01:56;;;;;;;9.48;5.10;;;;;;;;;;5090203;28;20507;-69
2022/01/11 06:04:24;;;;;;;9.45;5.72;;;;;;;;;;5091761;28;20581;-69
2022/01/11 06:06:50;;;;;;;9.90;5.60;;;;;;;;;;5091816;28;20023;-69
2022/01/11 06:09:16;;;;;;;10.45;6.13;;;;;;;;;;5090805;28;20546;-71
2022/01/11 06:11:42;;;;;;;13.38;5.88;;;;;;;;;;5090360;28;20234;-68
2022/01/11 06:14:08;;;;;;;10.77;6.10;;;;;;;;;;5091351;28;20020;-72
2022/01/11 06:16:34;;;;;;;7.75;5.20;;;;;;;;;;5091367;28;20028;-69
2022/01/11 06:19:00;;;;;;;8.93;5.32;;;;;;;;;;5090341;28;20102;-70
2022/01/11 06:21:26;;;;;;;9.13;5.93;;;;;;;;;;5091508;28;20062;-70
2022/01/11 06:23:52;;;;;;;9.07;5.50;;;;;;;;;;5090279;28;20436;-67
2022/01/11 06:26:19;;;;;;;8.48;5.57;;;;;;;;;;5089461;28;20123;-67
2022/01/11 06:28:45;;;;;;;9.77;5.85;;;;;;;;;;5091178;28;20035;-67
2022/01/11 06:31:11;;;;;;;8.07;4.68;;;;;;;;;;5091302;28;20020;-65
2022/01/11 06:33:37;;;;;;;9.60;6.10;;;;;;;;;;5090004;28;20059;-66
2022/01/11 06:36:09;;;;;;;9.25;5.93;;;;;;;;;;5073966;28;20025;-66
2022/01/11 06:38:35;;;;;;;10.27;5.57;;;;;;;;;;5069831;28;20056;-67
2022/01/11 06:41:01;;;;;;;9.18;5.60;;;;;;;;;;5070970;28;20070;-69
2022/01/11 06:43:27;;;;;;;9.32;5.97;;;;;;;;;;5071505;28;20029;-65
2022/01/11 06:45:53;;;;;;;8.57;4.82;;;;;;;;;;5070880;28;20104;-65
2022/01/11 06:48:20;;;;;;;9.18;5.45;;;;;;;;;;5071079;28;20089;-68
2022/01/11 06:50:47;;;;;;;9.23;5.50;;;;;;;;;;5071105;28;20044;-69
2022/01/11 06:53:13;;;;;;;10.10;5.43;;;;;;;;;;5069625;28;20028;-66
2022/01/11 06:55:39;;;;;;;8.55;5.22;;;;;;;;;;5070903;28;20021;-70
2022/01/11 06:58:05;;;;;;;10.65;6.35;;;;;;;;;;5070730;28;20032;-70
2022/01/11 07:00:31;;;;;;;8.18;5.13;;;;;;;;;;5071394;28;20056;-70
2022/01/11 07:02:57;;;;;;;8.75;5.35;;;;;;;;;;5069254;28;20024;-69
2022/01/11 07:05:23;;;;;;;9.05;5.40;;;;;;;;;;5070727;28;20025;-66
2022/01/11 07:07:50;;;;;;;10.27;6.22;;;;;;;;;;5070739;28;20025;-67
2022/01/11 07:10:16;;;;;;;11.30;5.72;;;;;;;;;;5070527;28;20055;-70
2022/01/11 07:12:42;;;;;;;8.38;5.20;;;;;;;;;;5069659;28;20373;-70
2022/01/11 07:15:09;;;;;;;9.27;5.18;;;;;;;;;;5070672;28;20108;-70
2022/01/11 07:17:35;;;;;;;10.50;5.63;;;;;;;;;;5071152;28;20381;-72
2022/01/11 07:20:01;;;;;;;9.32;5.78;;;;;;;;;;5069549;28;20584;-70
2022/01/11 07:22:28;;;;;;;9.85;5.53;;;;;;;;;;5070654;28;20074;-71
2022/01/11 07:24:54;;;;;;;9.45;5.63;;;;;;;;;;5070460;28;20049;-69
2022/01/11 07:27:20;;;;;;;9.93;5.90;;;;;;;;;;5069253;28;20021;-68
2022/01/11 07:29:46;;;;;;;11.52;6.03;;;;;;;;;;5070582;28;20419;-71
2022/01/11 07:32:12;;;;;;;9.63;5.47;;;;;;;;;;5069035;28;20388;-70
2022/01/11 07:34:38;;;;;;;11.07;6.32;;;;;;;;;;5069573;28;20355;-67
2022/01/11 07:37:04;;;;;;;8.77;5.07;;;;;;;;;;5070484;28;20032;-70
2022/01/11 07:39:30;;;;;;;11.77;5.88;;;;;;;;;;5073901;28;20025;-71
2022/01/11 07:41:56;;;;;;;8.88;5.50;;;;;;;;;;5073925;28;20029;-67
2022/01/11 07:44:23;;;;;;;9.57;5.30;;;;;;;;;;5074007;28;20044;-69
2022/01/11 07:46:49;;;;;;;8.13;5.25;;;;;;;;;;5073850;28;20489;-70
2022/01/11 07:49:15;;;;;;;9.90;6.35;;;;;;;;;;5072393;28;20099;-66
2022/01/11 07:51:41;;;;;;;9.13;5.55;;;;;;;;;;5074218;28;20024;-64
2022/01/11 07:54:07;;;;;;;10.90;5.97;;;;;;;;;;5073612;28;20028;-69
2022/01/11 07:56:33;;;;;;;9.10;5.60;;;;;;;;;;5073793;28;20016;-71
2022/01/11 07:58:59;;;;;;;9.52;5.97;;;;;;;;;;5073944;28;20111;-70
2022/01/11 08:01:25;;;;;;;28.95;6.35;;;;;;;;;;5073767;28;20021;-68
2022/01/11 08:03:51;;;;;;;8.38;5.30;;;;;;;;;;5073782;28;20028;-68
2022/01/11 08:06:17;;;;;;;11.30;5.93;;;;;;;;;;5073570;28;20490;-67
2022/01/11 08:08:43;;;;;;;8.77;5.05;;;;;;;;;;5074085;28;20025;-68
2022/01/11 08:11:10;;;;;;;10.45;5.90;;;;;;;;;;5073595;28;20099;-68
2022/01/11 08:13:37;;;;;;;9.98;5.30;;;;;;;;;;5073522;28;20026;-70
2022/01/11 08:16:03;;;;;;;9.90;5.75;;;;;;;;;;5073524;28;20028;-69
2022/01/11 08:18:29;;;;;;;9.07;5.57;;;;;;;;;;5073530;28;20064;-68
2022/01/11 08:20:55;;;;;;;9.63;5.70;;;;;;;;;;5073404;28;20074;-73
2022/01/11 08:23:21;;;;;;;8.80;5.63;;;;;;;;;;5072173;28;20025;-70
2022/01/11 08:25:47;;;;;;;9.23;5.63;;;;;;;;;;5072606;28;20131;-70
2022/01/11 08:28:13;;;;;;;9.52;5.72;;;;;;;;;;5073220;28;20469;-72
2022/01/11 08:30:40;;;;;;;10.13;5.28;;;;;;;;;;5071939;28;20020;-68
2022/01/11 08:33:07;;;;;;;11.55;6.07;;;;;;;;;;5072998;28;20158;-74
2022/01/11 08:35:35;;;;;;;10.50;5.88;;;;;;;;;;5072736;28;20027;-69
2022/01/11 08:38:01;;;;;;;8.82;4.95;;;;;;;;;;5072924;28;20120;-70
2022/01/11 08:40:27;;;;;;;9.40;5.50;;;;;;;;;;5073027;28;20024;-71
2022/01/11 08:42:53;;;;;;;13.50;6.38;;;;;;;;;;5073698;28;20072;-71
2022/01/11 08:45:20;;;;;;;12.90;6.57;;;;;;;;;;5071820;28;20036;-73
2022/01/11 08:47:46;;;;;;;9.38;5.45;;;;;;;;;;5072942;28;20472;-71
2022/01/11 08:50:13;;;;;;;11.30;6.78;;;;;;;;;;5071731;28;20031;-73
2022/01/11 08:52:39;;;;;;;8.63;5.30;;;;;;;;;;5073001;28;20016;-72
2022/01/11 08:55:07;;;;;;;9.48;5.90;;;;;;;;;;5072809;28;20017;-69
2022/01/11 08:57:33;;;;;;;9.60;5.78;;;;;;;;;;5072555;28;20036;-70
2022/01/11 09:00:00;;;;;;;9.40;5.30;;;;;;;;;;5072846;28;20032;-70
2022/01/11 09:02:26;;;;;;;12.02;6.35;;;;;;;;;;5071057;28;20108;-72
2022/01/11 09:04:53;;;;;;;10.73;6.03;;;;;;;;;;5070944;28;20025;-68
2022/01/11 09:07:19;;;;;;;10.02;5.75;;;;;;;;;;5072287;28;20025;-75
2022/01/11 09:09:45;;;;;;;11.27;5.90;;;;;;;;;;5072278;28;20024;-75
2022/01/11 09:12:13;;;;;;;9.65;5.30;;;;;;;;;;5071203;28;20025;-72
2022/01/11 09:14:39;;;;;;;10.55;6.10;;;;;;;;;;5072465;28;20027;-72
2022/01/11 09:17:06;;;;;;;10.55;6.55;;;;;;;;;;5072994;28;20444;-72
2022/01/11 09:19:32;;;;;;;12.05;5.90;;;;;;;;;;5072175;28;20060;-70
2022/01/11 09:21:58;;;;;;;12.43;5.57;;;;;;;;;;5072172;28;20017;-73
2022/01/11 09:24:29;;;;;;;11.25;6.28;;;;;;;;;;5072113;28;20048;-73
2022/01/11 09:26:56;;;;;;;20.80;5.82;;;;;;;;;;5072267;28;20033;-72
2022/01/11 09:29:22;;;;;;;10.85;5.50;;;;;;;;;;5072056;28;20027;-73
2022/01/11 09:31:48;;;;;;;11.07;5.88;;;;;;;;;;5071862;28;20016;-72
2022/01/11 09:34:14;;;;;;;10.90;5.68;;;;;;;;;;5082555;28;20048;-71
2022/01/11 09:36:41;;;;;;;9.25;5.82;;;;;;;;;;5070605;28;20610;-69
2022/01/11 09:39:08;;;;;;;9.95;5.75;;;;;;;;;;5071983;28;20047;-73
2022/01/11 09:41:34;;;;;;;12.68;6.82;;;;;;;;;;5071746;28;20427;-72
2022/01/11 09:44:00;;;;;;;78.15;57.53;;;;;;;;;;5071736;28;20017;-72
2022/01/11 09:46:28;;;;;;;226.30;146.00;;;;;;;;;;5071587;28;20163;-70
2022/01/11 09:48:54;;;;;;;155.07;100.65;;;;;;;;;;5071708;28;20012;-71
2022/01/11 09:51:20;;;;;;;119.85;78.63;;;;;;;;;;5072211;28;20040;-67
2022/01/11 09:53:46;;;;;;;107.85;69.25;;;;;;;;;;5071714;28;20477;-64
2022/01/11 09:56:13;;;;;;;97.18;60.45;;;;;;;;;;5071522;28;20028;-71
2022/01/11 09:58:40;;;;;;;85.05;55.85;;;;;;;;;;5072083;28;20049;-65
2022/01/11 10:01:06;;;;;;;88.57;56.92;;;;;;;;;;5089434;28;20051;-65
2022/01/11 10:03:52;;;;;;;78.70;49.13;;;;;;;;;;5099247;28;20032;-66
2022/01/11 10:06:18;;;;;;;64.15;42.33;;;;;;;;;;5092956;28;20062;-71
2022/01/11 10:08:44;;;;;;;69.78;43.55;;;;;;;;;;5084397;28;20384;-77
2022/01/11 10:11:10;;;;;;;56.83;36.95;;;;;;;;;;5091705;28;20115;-74
2022/01/11 10:13:40;;;;;;;49.92;33.20;;;;;;;;;;5091373;28;20024;-75
2022/01/11 10:16:19;;;;;;;51.38;33.55;;;;;;;;;;5092209;28;20038;-78
2022/01/11 10:18:45;;;;;;;48.60;31.60;;;;;;;;;;5092470;28;20032;-76
2022/01/11 10:21:30;;;;;;;42.28;28.15;;;;;;;;;;5092121;28;20020;-69
2022/01/11 10:23:56;;;;;;;40.70;26.90;;;;;;;;;;5092272;28;20093;-76
2022/01/11 10:26:44;;;;;;;42.47;26.35;;;;;;;;;;5074244;28;20500;-71
2022/01/11 10:29:28;;;;;;;36.25;23.50;;;;;;;;;;5071419;28;20104;-81
2022/01/11 10:31:54;;;;;;;40.58;25.92;;;;;;;;;;5071125;28;20096;-79
2022/01/11 10:34:32;;;;;;;39.42;26.55;;;;;;;;;;5069942;28;20100;-61
2022/01/11 10:36:59;;;;;;;36.90;23.25;;;;;;;;;;5071176;28;20107;-67
2022/01/11 10:39:28;;;;;;;32.60;20.92;;;;;;;;;;5071175;28;20090;-72
2022/01/11 10:41:54;;;;;;;28.33;18.60;;;;;;;;;;5070345;28;20023;-68
2022/01/11 10:44:39;;;;;;;27.17;18.02;;;;;;;;;;5070977;28;20021;-70
2022/01/11 10:47:05;;;;;;;26.52;16.80;;;;;;;;;;5071113;28;20039;-67
2022/01/11 10:49:32;;;;;;;28.90;17.40;;;;;;;;;;5070937;28;20193;-61
2022/01/11 10:52:17;;;;;;;23.35;15.07;;;;;;;;;;5071165;28;20032;-76
2022/01/11 10:54:43;;;;;;;23.52;15.05;;;;;;;;;;5071190;28;20685;-72
2022/01/11 10:57:20;;;;;;;22.67;13.85;;;;;;;;;;5080904;28;20028;-66
2022/01/11 11:00:06;;;;;;;20.58;13.63;;;;;;;;;;5088951;28;20024;-78
2022/01/11 11:02:32;;;;;;;17.00;11.20;;;;;;;;;;5071024;28;20016;-79
2022/01/11 11:05:00;;;;;;;19.50;11.30;;;;;;;;;;5071315;28;20019;-74
2022/01/11 11:07:27;;;;;;;17.80;11.43;;;;;;;;;;5071336;28;20355;-73
2022/01/11 11:09:54;;;;;;;16.27;9.07;;;;;;;;;;5071314;28;20490;-72
2022/01/11 11:12:22;;;;;;;14.57;9.32;;;;;;;;;;5076133;28;20062;-69
2022/01/11 11:14:49;;;;;;;14.75;9.35;;;;;;;;;;5083233;28;20017;-73
2022/01/11 11:17:25;;;;;;;11.95;7.57;;;;;;;;;;5073523;28;20035;-77
2022/01/11 11:20:11;;;;;;;14.90;9.27;;;;;;;;;;5074737;28;20029;-62
2022/01/11 11:22:37;;;;;;;14.23;8.85;;;;;;;;;;5073507;28;20012;-72
2022/01/11 11:25:04;;;;;;;13.05;8.30;;;;;;;;;;5074651;28;20044;-70
2022/01/11 11:27:31;;;;;;;13.00;7.85;;;;;;;;;;5074862;28;20024;-69
2022/01/11 11:29:59;;;;;;;11.70;6.65;;;;;;;;;;5074577;28;20078;-76
2022/01/11 11:32:25;;;;;;;11.90;7.45;;;;;;;;;;5074460;28;20021;-78
2022/01/11 11:34:52;;;;;;;9.88;6.40;;;;;;;;;;5074689;28;20017;-78
2022/01/11 11:37:20;;;;;;;12.20;7.53;;;;;;;;;;5074595;28;20033;-68
2022/01/11 11:39:47;;;;;;;9.10;5.82;;;;;;;;;;5074430;28;20056;-77
2022/01/11 11:42:17;;;;;;;10.45;6.32;;;;;;;;;;5074304;28;20473;-74
2022/01/11 11:44:46;;;;;;;11.00;6.38;;;;;;;;;;5074194;28;20048;-76
2022/01/11 11:47:12;;;;;;;9.77;5.70;;;;;;;;;;5074030;28;20060;-71
2022/01/11 11:49:46;;;;;;;8.70;5.88;;;;;;;;;;5074262;28;20031;-74
2022/01/11 11:52:27;;;;;;;10.10;5.70;;;;;;;;;;5074356;28;20031;-77
2022/01/11 11:54:53;;;;;;;11.45;6.00;;;;;;;;;;5074263;28;20531;-77
2022/01/11 11:57:20;;;;;;;10.68;5.45;;;;;;;;;;5085034;28;20185;-76
2022/01/11 11:59:51;;;;;;;9.32;5.50;;;;;;;;;;5094214;28;20030;-69
2022/01/11 12:02:40;;;;;;;9.82;5.78;;;;;;;;;;5094409;28;20016;-80
2022/01/11 12:05:14;;;;;;;9.27;5.28;;;;;;;;;;5094773;28;20026;-86
2022/01/11 12:07:43;;;;;;;16.15;5.50;;;;;;;;;;5094352;28;20073;-81
2022/01/11 12:10:14;;;;;;;10.63;5.68;;;;;;;;;;5094146;28;20083;-83
2022/01/11 12:12:42;;;;;;;9.48;5.45;;;;;;;;;;5094489;28;20182;-83
2022/01/11 12:15:23;;;;;;;10.02;5.85;;;;;;;;;;5094282;28;20020;-80
2022/01/11 12:17:49;;;;;;;8.50;4.80;;;;;;;;;;5094671;28;20028;-84
2022/01/11 12:20:34;;;;;;;7.43;4.60;;;;;;;;;;5094547;28;20077;-74
2022/01/11 12:23:00;;;;;;;8.60;5.35;;;;;;;;;;5093890;28;20027;-69
2022/01/11 12:25:30;;;;;;;9.75;5.10;;;;;;;;;;5092214;28;20044;-68
2022/01/11 12:28:01;;;;;;;8.10;4.70;;;;;;;;;;5093758;28;20020;-73
2022/01/11 12:30:27;;;;;;;7.50;4.47;;;;;;;;;;5093674;28;20103;-81
2022/01/11 12:33:16;;;;;;;9.02;4.28;;;;;;;;;;5094336;28;20027;-80
2022/01/11 12:35:58;;;;;;;9.30;5.10;;;;;;;;;;5096096;28;20083;-79
2022/01/11 12:38:25;;;;;;;7.85;4.60;;;;;;;;;;5101182;28;20093;-82
2022/01/11 12:40:51;;;;;;;7.95;4.22;;;;;;;;;;5094245;28;20103;-82
2022/01/11 12:43:37;;;;;;;8.23;5.00;;;;;;;;;;5093146;28;20050;-83
2022/01/11 12:46:05;;;;;;;7.70;4.65;;;;;;;;;;5093589;28;20043;-80
2022/01/11 12:48:53;;;;;;;8.45;5.00;;;;;;;;;;5093455;28;20091;-80
2022/01/11 12:51:21;;;;;;;8.40;4.70;;;;;;;;;;5093206;28;20032;-84
2022/01/11 12:53:47;;;;;;;7.63;4.43;;;;;;;;;;5093341;28;20054;-76
2022/01/11 12:56:13;;;;;;;9.57;5.05;;;;;;;;;;5092735;28;20030;-74
2022/01/11 12:58:39;;;;;;;8.00;4.70;;;;;;;;;;5094147;28;20028;-81
2022/01/11 13:01:23;;;;;;;7.95;4.60;;;;;;;;;;5079266;28;20048;-70
2022/01/11 13:03:50;;;;;;;8.52;4.93;;;;;;;;;;5072882;28;20025;-84
2022/01/11 13:06:18;;;;;;;9.18;5.30;;;;;;;;;;5073700;28;20020;-81
2022/01/11 13:08:45;;;;;;;8.00;4.50;;;;;;;;;;5074021;28;20017;-86
2022/01/11 13:11:18;;;;;;;9.68;4.90;;;;;;;;;;5073057;28;20123;-83
2022/01/11 13:13:53;;;;;;;8.18;5.20;;;;;;;;;;5072957;28;20107;-85
2022/01/11 13:16:27;;;;;;;8.20;4.93;;;;;;;;;;5071609;28;20033;-78
2022/01/11 13:18:53;;;;;;;10.85;5.20;;;;;;;;;;5090646;28;20043;-82
2022/01/11 13:21:23;;;;;;;8.27;4.80;;;;;;;;;;5071589;28;20024;-83
2022/01/11 13:24:01;;;;;;;7.72;4.28;;;;;;;;;;5073453;28;20016;-82
2022/01/11 13:26:28;;;;;;;8.35;4.57;;;;;;;;;;5072631;28;20073;-73
2022/01/11 13:28:59;;;;;;;7.35;4.75;;;;;;;;;;5071031;28;20073;-72
2022/01/11 13:31:28;;;;;;;8.70;3.80;;;;;;;;;;5071846;28;20089;-76
2022/01/11 13:34:03;;;;;;;7.50;4.47;;;;;;;;;;5070802;28;20024;-70
2022/01/11 13:36:34;;;;;;;7.35;3.92;;;;;;;;;;5071561;28;20020;-71
2022/01/11 13:39:11;;;;;;;6.63;3.92;;;;;;;;;;5072043;28;20039;-69
2022/01/11 13:41:48;;;;;;;12.98;4.57;;;;;;;;;;5072252;28;20025;-69
2022/01/11 13:44:21;;;;;;;7.43;3.88;;;;;;;;;;5070730;28;20028;-72
2022/01/11 13:46:58;;;;;;;8.13;5.07;;;;;;;;;;5071067;28;20031;-72
2022/01/11 13:49:27;;;;;;;8.88;4.65;;;;;;;;;;5071979;28;20077;-77
2022/01/11 13:51:55;;;;;;;14.70;4.82;;;;;;;;;;5071856;28;20027;-76
2022/01/11 13:54:22;;;;;;;12.48;5.90;;;;;;;;;;5071678;28;20035;-77
2022/01/11 13:56:50;;;;;;;14.50;7.22;;;;;;;;;;5078806;28;20016;-72
2022/01/11 13:59:20;;;;;;;12.60;5.78;;;;;;;;;;5091871;28;20032;-70
2022/01/11 14:01:47;;;;;;;12.88;6.15;;;;;;;;;;5092045;28;20020;-70
2022/01/11 14:04:14;;;;;;;13.25;6.20;;;;;;;;;;5091913;28;20020;-75
2022/01/11 14:06:42;;;;;;;9.40;5.05;;;;;;;;;;5091829;28;20020;-74
2022/01/11 14:09:16;;;;;;;8.45;4.85;;;;;;;;;;5091886;28;20020;-71
2022/01/11 14:12:02;;;;;;;9.07;4.53;;;;;;;;;;5091863;28;20024;-71
2022/01/11 14:14:29;;;;;;;8.57;4.97;;;;;;;;;;5091834;28;20503;-71
2022/01/11 14:16:55;;;;;;;8.43;4.57;;;;;;;;;;5091796;28;20020;-73
2022/01/11 14:19:21;;;;;;;8.60;4.78;;;;;;;;;;5090743;28;20028;-68
2022/01/11 14:21:51;;;;;;;7.90;4.38;;;;;;;;;;5090288;28;20495;-68
2022/01/11 14:24:18;;;;;;;9.23;4.63;;;;;;;;;;5091678;28;20500;-74
2022/01/11 14:26:44;;;;;;;7.10;4.28;;;;;;;;;;5091587;28;20021;-65
2022/01/11 14:29:16;;;;;;;8.23;4.07;;;;;;;;;;5091682;28;20024;-73
2022/01/11 14:31:43;;;;;;;8.23;4.22;;;;;;;;;;5090106;28;20404;-73
2022/01/11 14:34:11;;;;;;;10.60;4.45;;;;;;;;;;5091491;28;20027;-68
2022/01/11 14:36:37;;;;;;;7.65;4.13;;;;;;;;;;5091434;28;20063;-78
2022/01/11 14:39:08;;;;;;;10.25;4.45;;;;;;;;;;5093463;28;20032;-70
2022/01/11 14:41:39;;;;;;;8.13;4.07;;;;;;;;;;5091279;28;20024;-72
2022/01/11 14:44:05;;;;;;;6.88;3.92;;;;;;;;;;5091329;28;20077;-75
2022/01/11 14:46:32;;;;;;;7.05;4.15;;;;;;;;;;5090930;28;20097;-67